Time;durP1;ratioP1;P1;durP2;ratioP2;P2;SDS_P1;SDS_P2;PMS_P1;PMS_P2;Temp;Humidity;BMP_temperature;BMP_pressure;BME280_temperature;BME280_humidity;BME280_pressure;Samples;Min_cycle;Max_cycle;Signal;HPM_P1;HPM_P2
2022/04/10 00:01:31;;;;;;;;;;;21.80;47.30;;;;;;5070843;28;1906;-44
2022/04/10 00:03:58;;;;;;;;;;;21.80;47.30;;;;;;5071253;28;1054;-44
2022/04/10 00:06:25;;;;;;;;;;;21.80;47.40;;;;;;5072868;28;952;-46
2022/04/10 00:08:52;;;;;;;;;;;21.80;47.30;;;;;;5072208;28;920;-43
2022/04/10 00:11:19;;;;;;;;;;;21.80;47.20;;;;;;5073340;28;993;-44
2022/04/10 00:13:45;;;;;;;;;;;21.80;47.30;;;;;;5072313;28;1020;-43
2022/04/10 00:16:13;;;;;;;;;;;21.80;47.30;;;;;;5073210;28;1026;-44
2022/04/10 00:18:40;;;;;;;;;;;21.80;47.40;;;;;;5073866;28;1016;-43
2022/04/10 00:21:07;;;;;;;;;;;21.80;47.30;;;;;;5073553;28;835;-44
2022/04/10 00:23:34;;;;;;;;;;;21.80;47.40;;;;;;5072996;28;1986;-44
2022/04/10 00:26:01;;;;;;;;;;;21.70;47.30;;;;;;5073111;28;1003;-43
2022/04/10 00:28:28;;;;;;;;;;;21.80;47.30;;;;;;5072815;28;941;-44
2022/04/10 00:30:54;;;;;;;;;;;21.80;47.30;;;;;;5073212;28;972;-44
2022/04/10 00:33:23;;;;;;;;;;;21.70;47.30;;;;;;5073561;28;982;-44
2022/04/10 00:35:49;;;;;;;;;;;21.70;47.30;;;;;;5073913;28;940;-43
2022/04/10 00:38:16;;;;;;;;;;;21.70;47.40;;;;;;5072734;28;1432;-44
2022/04/10 00:40:43;;;;;;;;;;;21.70;47.30;;;;;;5072076;28;985;-44
2022/04/10 00:43:10;;;;;;;;;;;21.70;47.30;;;;;;5072596;28;1965;-42
2022/04/10 00:45:36;;;;;;;;;;;21.70;47.30;;;;;;5072917;28;968;-44
2022/04/10 00:48:03;;;;;;;;;;;21.70;47.30;;;;;;5075584;28;1028;-44
2022/04/10 00:50:32;;;;;;;;;;;21.70;47.30;;;;;;5076566;28;975;-43
2022/04/10 00:52:59;;;;;;;;;;;21.70;47.30;;;;;;5076365;28;985;-44
2022/04/10 00:55:26;;;;;;;;;;;21.70;47.30;;;;;;5076412;28;949;-44
2022/04/10 00:57:53;;;;;;;;;;;21.70;47.20;;;;;;5076381;28;943;-43
2022/04/10 01:00:19;;;;;;;;;;;21.70;47.20;;;;;;5076465;28;1004;-43
2022/04/10 01:02:46;;;;;;;;;;;21.70;47.30;;;;;;5075850;28;1984;-42
2022/04/10 01:05:13;;;;;;;;;;;21.70;47.30;;;;;;5076676;28;1008;-43
2022/04/10 01:07:41;;;;;;;;;;;21.70;47.20;;;;;;5075603;28;964;-43
2022/04/10 01:10:08;;;;;;;;;;;21.70;47.10;;;;;;5075816;28;1040;-44
2022/04/10 01:12:35;;;;;;;;;;;21.70;47.10;;;;;;5076143;28;929;-43
2022/04/10 01:15:02;;;;;;;;;;;21.70;47.30;;;;;;5075833;28;1000;-43
2022/04/10 01:17:30;;;;;;;;;;;21.60;47.30;;;;;;5076314;28;1021;-43
2022/04/10 01:19:57;;;;;;;;;;;21.70;47.30;;;;;;5076639;28;1012;-42
2022/04/10 01:22:34;;;;;;;;;;;21.70;47.30;;;;;;5076160;28;1903;-43
2022/04/10 01:25:04;;;;;;;;;;;21.70;47.30;;;;;;5076128;28;1005;-40
2022/04/10 01:27:30;;;;;;;;;;;21.70;47.30;;;;;;5076150;28;904;-44
2022/04/10 01:29:57;;;;;;;;;;;21.70;47.30;;;;;;5075544;28;1115;-42
2022/04/10 01:32:24;;;;;;;;;;;21.70;47.30;;;;;;5076583;28;1016;-43
2022/04/10 01:34:50;;;;;;;;;;;21.60;47.30;;;;;;5076050;28;989;-44
2022/04/10 01:37:18;;;;;;;;;;;21.60;47.30;;;;;;5076389;28;999;-44
2022/04/10 01:39:46;;;;;;;;;;;21.60;47.30;;;;;;5075483;28;1114;-43
2022/04/10 01:42:13;;;;;;;;;;;21.60;47.30;;;;;;5074637;28;1986;-44
2022/04/10 01:44:40;;;;;;;;;;;21.60;47.30;;;;;;5074743;28;855;-43
2022/04/10 01:47:07;;;;;;;;;;;21.60;47.30;;;;;;5075813;28;1011;-43
2022/04/10 01:49:34;;;;;;;;;;;21.60;47.20;;;;;;5074092;28;842;-43
2022/04/10 01:52:00;;;;;;;;;;;21.60;47.10;;;;;;5074253;28;997;-43
2022/04/10 01:54:27;;;;;;;;;;;21.60;47.20;;;;;;5074406;28;889;-44
2022/04/10 01:56:55;;;;;;;;;;;21.60;47.20;;;;;;5075585;28;1019;-44
2022/04/10 01:59:22;;;;;;;;;;;21.60;47.30;;;;;;5075282;28;1015;-43
2022/04/10 02:01:49;;;;;;;;;;;21.60;47.30;;;;;;5075343;28;1009;-44
2022/04/10 02:04:17;;;;;;;;;;;21.60;47.30;;;;;;5075437;28;1906;-44
2022/04/10 02:06:43;;;;;;;;;;;21.60;47.30;;;;;;5075984;28;885;-42
2022/04/10 02:09:10;;;;;;;;;;;21.60;47.20;;;;;;5074577;28;1001;-41
2022/04/10 02:11:37;;;;;;;;;;;21.60;47.20;;;;;;5075771;28;1044;-42
2022/04/10 02:14:05;;;;;;;;;;;21.60;47.20;;;;;;5075490;28;936;-43
2022/04/10 02:16:32;;;;;;;;;;;21.60;47.30;;;;;;5076215;28;952;-44
2022/04/10 02:18:58;;;;;;;;;;;21.60;47.20;;;;;;5076054;28;1015;-43
2022/04/10 02:21:25;;;;;;;;;;;21.50;47.20;;;;;;5076219;28;1055;-42
2022/04/10 02:23:52;;;;;;;;;;;21.50;47.20;;;;;;5076620;28;1902;-43
2022/04/10 02:29:43;;;;;;;;;;;21.60;47.20;;;;;;5075307;28;850;-44
2022/04/10 02:32:10;;;;;;;;;;;21.60;47.20;;;;;;5074916;28;1012;-43
2022/04/10 02:34:37;;;;;;;;;;;21.60;47.20;;;;;;5075732;28;985;-44
2022/04/10 02:37:04;;;;;;;;;;;21.50;47.20;;;;;;5074035;28;995;-44
2022/04/10 02:39:31;;;;;;;;;;;21.50;47.20;;;;;;5073849;28;1152;-41
2022/04/10 02:41:57;;;;;;;;;;;21.50;47.10;;;;;;5074174;28;897;-43
2022/04/10 02:44:24;;;;;;;;;;;21.50;47.10;;;;;;5074948;28;1976;-44
2022/04/10 02:46:52;;;;;;;;;;;21.50;47.10;;;;;;5074725;28;999;-43
2022/04/10 02:49:19;;;;;;;;;;;21.50;47.10;;;;;;5073969;28;940;-43
2022/04/10 02:51:49;;;;;;;;;;;21.50;47.10;;;;;;5074724;28;941;-42
2022/04/10 02:54:16;;;;;;;;;;;21.50;47.20;;;;;;5075137;28;1035;-44
2022/04/10 02:56:42;;;;;;;;;;;21.50;47.10;;;;;;5074788;28;920;-44
2022/04/10 02:59:09;;;;;;;;;;;21.50;47.10;;;;;;5073480;28;948;-42
2022/04/10 03:01:36;;;;;;;;;;;21.50;47.10;;;;;;5073690;28;940;-42
2022/04/10 03:04:04;;;;;;;;;;;21.50;47.10;;;;;;5074076;28;1974;-44
2022/04/10 03:06:31;;;;;;;;;;;21.50;47.10;;;;;;5075721;28;940;-43
2022/04/10 03:08:58;;;;;;;;;;;21.50;47.10;;;;;;5073915;28;876;-44
2022/04/10 03:11:25;;;;;;;;;;;21.50;47.20;;;;;;5073976;28;961;-43
2022/04/10 03:13:52;;;;;;;;;;;21.50;47.10;;;;;;5074137;28;983;-45
2022/04/10 03:16:19;;;;;;;;;;;21.40;47.10;;;;;;5073981;28;1012;-42
2022/04/10 03:18:45;;;;;;;;;;;21.50;47.10;;;;;;5074887;28;973;-44
2022/04/10 03:21:13;;;;;;;;;;;21.50;47.10;;;;;;5074757;28;972;-46
2022/04/10 03:23:40;;;;;;;;;;;21.40;47.10;;;;;;5075084;28;1905;-44
2022/04/10 03:26:07;;;;;;;;;;;21.40;47.20;;;;;;5074781;28;1746;-44
2022/04/10 03:28:34;;;;;;;;;;;21.40;47.20;;;;;;5074672;28;1007;-44
2022/04/10 03:31:00;;;;;;;;;;;21.40;47.20;;;;;;5074414;28;984;-43
2022/04/10 03:33:27;;;;;;;;;;;21.40;47.10;;;;;;5074704;28;1026;-41
2022/04/10 03:35:54;;;;;;;;;;;21.40;47.20;;;;;;5074812;28;952;-43
2022/04/10 03:38:22;;;;;;;;;;;21.40;47.20;;;;;;5074616;28;1043;-44
2022/04/10 03:40:49;;;;;;;;;;;21.40;47.20;;;;;;5073894;28;1852;-44
2022/04/10 03:43:16;;;;;;;;;;;21.40;47.10;;;;;;5073812;28;1893;-44
2022/04/10 03:45:42;;;;;;;;;;;21.40;47.10;;;;;;5072758;28;960;-44
2022/04/10 03:48:10;;;;;;;;;;;21.40;47.10;;;;;;5072347;28;937;-44
2022/04/10 03:50:37;;;;;;;;;;;21.40;47.20;;;;;;5073832;28;1104;-43
2022/04/10 03:53:04;;;;;;;;;;;21.40;47.30;;;;;;5074075;28;928;-43
2022/04/10 03:55:33;;;;;;;;;;;21.40;47.30;;;;;;5072956;28;1446;-43
2022/04/10 03:57:59;;;;;;;;;;;21.40;47.20;;;;;;5072700;28;886;-43
2022/04/10 04:00:26;;;;;;;;;;;21.40;47.20;;;;;;5073207;28;988;-42
2022/04/10 04:02:53;;;;;;;;;;;21.40;47.10;;;;;;5074818;28;1910;-44
2022/04/10 04:05:20;;;;;;;;;;;21.40;48.40;;;;;;5074254;28;983;-44
2022/04/10 04:07:47;;;;;;;;;;;21.30;47.20;;;;;;5073732;28;929;-44
2022/04/10 04:10:14;;;;;;;;;;;21.40;47.20;;;;;;5073752;28;1016;-44
2022/04/10 04:12:42;;;;;;;;;;;21.30;47.20;;;;;;5074398;28;996;-41
2022/04/10 04:15:10;;;;;;;;;;;21.30;47.20;;;;;;5074438;28;889;-43
2022/04/10 04:17:38;;;;;;;;;;;21.30;47.20;;;;;;5073381;28;857;-42
2022/04/10 04:20:05;;;;;;;;;;;21.30;47.20;;;;;;5072920;28;968;-43
2022/04/10 04:22:32;;;;;;;;;;;21.30;47.20;;;;;;5078564;28;1019;-44
2022/04/10 04:24:59;;;;;;;;;;;21.30;47.20;;;;;;5077910;28;1910;-43
2022/04/10 04:27:25;;;;;;;;;;;21.30;47.20;;;;;;5077134;28;955;-43
2022/04/10 04:29:53;;;;;;;;;;;21.30;47.20;;;;;;5076944;28;970;-44
2022/04/10 04:32:20;;;;;;;;;;;21.30;47.20;;;;;;5077516;28;955;-44
2022/04/10 04:34:47;;;;;;;;;;;21.30;47.20;;;;;;5077145;28;1119;-44
2022/04/10 04:37:14;;;;;;;;;;;21.30;47.20;;;;;;5076483;28;1766;-44
2022/04/10 04:39:40;;;;;;;;;;;21.30;47.20;;;;;;5077331;28;1099;-43
2022/04/10 04:42:08;;;;;;;;;;;21.30;47.20;;;;;;5075558;28;1023;-44
2022/04/10 04:44:35;;;;;;;;;;;21.30;47.20;;;;;;5075863;28;1901;-43
2022/04/10 04:47:03;;;;;;;;;;;21.30;47.20;;;;;;5076314;28;937;-42
2022/04/10 04:49:30;;;;;;;;;;;21.30;47.30;;;;;;5076107;28;1024;-44
2022/04/10 04:51:56;;;;;;;;;;;21.30;47.30;;;;;;5076313;28;1470;-42
2022/04/10 04:54:23;;;;;;;;;;;21.30;47.30;;;;;;5076465;28;949;-44
2022/04/10 04:56:50;;;;;;;;;;;21.30;47.30;;;;;;5075156;28;1016;-43
2022/04/10 04:59:16;;;;;;;;;;;21.30;47.20;;;;;;5075145;28;1772;-43
2022/04/10 05:01:43;;;;;;;;;;;21.30;47.20;;;;;;5075654;28;920;-44
2022/04/10 05:04:12;;;;;;;;;;;21.20;47.20;;;;;;5076144;28;1905;-44
2022/04/10 05:06:39;;;;;;;;;;;21.20;47.20;;;;;;5076264;28;951;-44
2022/04/10 05:09:06;;;;;;;;;;;21.20;47.20;;;;;;5075594;28;1020;-42
2022/04/10 05:11:33;;;;;;;;;;;21.20;47.30;;;;;;5076706;28;971;-44
2022/04/10 05:13:59;;;;;;;;;;;21.20;47.30;;;;;;5076053;28;1012;-44
2022/04/10 05:16:26;;;;;;;;;;;21.20;47.40;;;;;;5075749;28;872;-46
2022/04/10 05:18:53;;;;;;;;;;;21.20;47.30;;;;;;5077087;28;952;-46
2022/04/10 05:21:21;;;;;;;;;;;21.20;47.40;;;;;;5077227;28;1001;-46
2022/04/10 05:23:47;;;;;;;;;;;21.20;47.20;;;;;;5076377;28;1992;-43
2022/04/10 05:26:14;;;;;;;;;;;21.20;47.20;;;;;;5076447;28;980;-44
2022/04/10 05:28:41;;;;;;;;;;;21.20;47.20;;;;;;5076599;28;944;-43
2022/04/10 05:31:07;;;;;;;;;;;21.20;47.30;;;;;;5076310;28;933;-43
2022/04/10 05:33:35;;;;;;;;;;;21.20;47.30;;;;;;5076319;28;1000;-43
2022/04/10 05:36:01;;;;;;;;;;;21.20;47.30;;;;;;5076364;28;936;-44
2022/04/10 05:38:29;;;;;;;;;;;21.20;47.30;;;;;;5076149;28;1185;-44
2022/04/10 05:40:58;;;;;;;;;;;21.20;47.30;;;;;;5075483;28;952;-43
2022/04/10 05:43:25;;;;;;;;;;;21.20;47.30;;;;;;5075183;28;1902;-43
2022/04/10 05:45:52;;;;;;;;;;;21.20;47.20;;;;;;5076070;28;940;-44
2022/04/10 05:48:18;;;;;;;;;;;21.20;47.20;;;;;;5075879;28;1000;-42
2022/04/10 05:50:45;;;;;;;;;;;21.20;47.20;;;;;;5075230;28;940;-45
2022/04/10 05:53:12;;;;;;;;;;;21.20;47.20;;;;;;5074884;28;1000;-44
2022/04/10 05:55:40;;;;;;;;;;;21.20;47.30;;;;;;5075104;28;1081;-44
2022/04/10 05:58:07;;;;;;;;;;;21.20;47.20;;;;;;5073535;28;1016;-44
2022/04/10 06:00:33;;;;;;;;;;;21.20;47.20;;;;;;5074855;28;1022;-44
2022/04/10 06:03:01;;;;;;;;;;;21.20;47.30;;;;;;5074870;28;995;-44
2022/04/10 06:05:28;;;;;;;;;;;21.20;47.30;;;;;;5073929;28;1914;-44
2022/04/10 06:07:55;;;;;;;;;;;21.10;47.30;;;;;;5074732;28;2360;-44
2022/04/10 06:10:21;;;;;;;;;;;21.20;47.40;;;;;;5074656;28;980;-44
2022/04/10 06:12:50;;;;;;;;;;;21.20;47.30;;;;;;5075939;28;1016;-43
2022/04/10 06:15:17;;;;;;;;;;;21.20;47.10;;;;;;5075293;28;1034;-44
2022/04/10 06:17:44;;;;;;;;;;;21.20;47.10;;;;;;5075308;28;1011;-43
2022/04/10 06:20:11;;;;;;;;;;;21.20;47.20;;;;;;5075202;28;1011;-44
2022/04/10 06:22:38;;;;;;;;;;;21.20;47.30;;;;;;5074562;28;1047;-43
2022/04/10 06:25:06;;;;;;;;;;;21.20;47.20;;;;;;5074422;28;1984;-43
2022/04/10 06:27:32;;;;;;;;;;;21.30;47.20;;;;;;5073550;28;897;-44
2022/04/10 06:30:00;;;;;;;;;;;21.20;47.20;;;;;;5074053;28;1007;-46
2022/04/10 06:32:27;;;;;;;;;;;21.20;47.20;;;;;;5073958;28;1064;-44
2022/04/10 06:34:54;;;;;;;;;;;21.20;47.10;;;;;;5073581;28;1026;-44
2022/04/10 06:37:21;;;;;;;;;;;21.20;47.20;;;;;;5074225;28;995;-45
2022/04/10 06:39:47;;;;;;;;;;;21.20;47.20;;;;;;5073261;28;1863;-45
2022/04/10 06:42:14;;;;;;;;;;;21.30;47.10;;;;;;5071287;28;1015;-45
2022/04/10 06:44:41;;;;;;;;;;;21.30;47.20;;;;;;5071668;28;1905;-45
2022/04/10 06:47:09;;;;;;;;;;;21.30;47.10;;;;;;5073953;28;1022;-47
2022/04/10 06:49:36;;;;;;;;;;;21.20;47.10;;;;;;5073014;28;1262;-45
2022/04/10 06:52:03;;;;;;;;;;;21.20;47.10;;;;;;5073033;28;996;-44
2022/04/10 06:54:29;;;;;;;;;;;21.30;47.10;;;;;;5074040;28;952;-44
2022/04/10 06:56:56;;;;;;;;;;;21.20;47.00;;;;;;5073363;28;937;-45
2022/04/10 06:59:23;;;;;;;;;;;21.20;47.00;;;;;;5072271;28;1269;-44
2022/04/10 07:01:49;;;;;;;;;;;21.30;47.00;;;;;;5071046;28;869;-44
2022/04/10 07:04:17;;;;;;;;;;;21.30;47.00;;;;;;5071625;28;1906;-44
2022/04/10 07:06:46;;;;;;;;;;;21.30;46.90;;;;;;5071520;28;948;-45
2022/04/10 07:09:13;;;;;;;;;;;21.20;47.00;;;;;;5071347;28;1046;-45
2022/04/10 07:11:40;;;;;;;;;;;21.20;47.20;;;;;;5071299;28;928;-45
2022/04/10 07:14:07;;;;;;;;;;;21.20;47.20;;;;;;5070914;28;892;-44
2022/04/10 07:16:34;;;;;;;;;;;21.10;48.30;;;;;;5070382;28;932;-45
2022/04/10 07:19:00;;;;;;;;;;;21.10;47.20;;;;;;5071531;28;1012;-44
2022/04/10 07:24:14;;;;;;;;;;;21.10;47.30;;;;;;5069940;28;1913;-44
2022/04/10 07:26:40;;;;;;;;;;;21.10;47.40;;;;;;5071669;28;948;-45
2022/04/10 07:29:10;;;;;;;;;;;21.10;47.40;;;;;;5071244;28;1002;-45
2022/04/10 07:31:37;;;;;;;;;;;21.10;47.50;;;;;;5071059;28;956;-45
2022/04/10 07:34:03;;;;;;;;;;;21.10;47.50;;;;;;5071179;28;1007;-39
2022/04/10 07:36:32;;;;;;;;;;;21.10;47.50;;;;;;5071683;28;1008;-39
2022/04/10 07:39:00;;;;;;;;;;;21.10;47.50;;;;;;5071478;28;1106;-42
2022/04/10 07:41:27;;;;;;;;;;;21.10;47.50;;;;;;5070434;28;1007;-40
2022/04/10 07:43:53;;;;;;;;;;;21.10;47.50;;;;;;5070145;28;2239;-39
2022/04/10 07:49:04;;;;;;;;;;;21.10;47.50;;;;;;5069496;28;970;-41
2022/04/10 07:51:32;;;;;;;;;;;21.10;47.40;;;;;;5071072;28;1072;-38
2022/04/10 07:53:59;;;;;;;;;;;21.10;47.50;;;;;;5069712;28;1016;-40
2022/04/10 07:56:26;;;;;;;;;;;21.10;47.50;;;;;;5074978;28;889;-39
2022/04/10 07:58:52;;;;;;;;;;;21.10;47.40;;;;;;5074458;28;993;-40
2022/04/10 08:01:19;;;;;;;;;;;21.10;47.50;;;;;;5074917;28;940;-40
2022/04/10 08:03:51;;;;;;;;;;;21.10;47.50;;;;;;5074256;28;928;-39
2022/04/10 08:06:17;;;;;;;;;;;21.10;47.50;;;;;;5074949;28;1007;-39
2022/04/10 08:08:46;;;;;;;;;;;21.10;47.50;;;;;;5075005;28;1059;-42
2022/04/10 08:11:12;;;;;;;;;;;21.10;47.50;;;;;;5074782;28;1768;-38
2022/04/10 08:13:39;;;;;;;;;;;21.10;47.50;;;;;;5073536;28;1010;-41
2022/04/10 08:16:06;;;;;;;;;;;21.10;47.50;;;;;;5075361;28;913;-40
2022/04/10 08:18:33;;;;;;;;;;;21.10;47.50;;;;;;5074651;28;1007;-38
2022/04/10 08:20:59;;;;;;;;;;;21.10;47.50;;;;;;5073111;28;1116;-39
2022/04/10 08:23:26;;;;;;;;;;;21.10;47.50;;;;;;5074636;28;991;-40
2022/04/10 08:25:54;;;;;;;;;;;21.10;47.50;;;;;;5074008;28;1983;-39
2022/04/10 08:28:21;;;;;;;;;;;21.10;47.50;;;;;;5075246;28;996;-40
2022/04/10 08:30:47;;;;;;;;;;;21.00;47.40;;;;;;5075296;28;1000;-39
2022/04/10 08:33:14;;;;;;;;;;;21.10;47.50;;;;;;5075059;28;956;-39
2022/04/10 08:35:41;;;;;;;;;;;21.10;47.40;;;;;;5073418;28;1009;-41
2022/04/10 08:38:08;;;;;;;;;;;21.10;47.50;;;;;;5074035;28;1316;-39
2022/04/10 08:40:35;;;;;;;;;;;21.20;47.40;;;;;;5074145;28;1008;-40
2022/04/10 08:43:03;;;;;;;;;;;21.20;47.30;;;;;;5073763;28;952;-43
2022/04/10 08:45:30;;;;;;;;;;;21.20;47.30;;;;;;5072488;28;1910;-42
2022/04/10 08:47:57;;;;;;;;;;;21.30;46.80;;;;;;5071958;28;1108;-39
2022/04/10 08:50:24;;;;;;;;;;;21.40;46.80;;;;;;5071351;28;904;-40
2022/04/10 08:52:52;;;;;;;;;;;21.40;46.60;;;;;;5070389;28;1007;-38
2022/04/10 08:55:19;;;;;;;;;;;21.50;46.50;;;;;;5071305;28;960;-39
2022/04/10 08:57:46;;;;;;;;;;;21.50;46.50;;;;;;5070570;28;1019;-41
2022/04/10 09:00:16;;;;;;;;;;;21.60;46.40;;;;;;5072008;28;1034;-39
2022/04/10 09:02:49;;;;;;;;;;;21.60;46.30;;;;;;5071610;28;1171;-40
2022/04/10 09:05:17;;;;;;;;;;;21.70;46.30;;;;;;5070950;28;1987;-39
2022/04/10 09:08:04;;;;;;;;;;;21.60;46.30;;;;;;5071704;28;1018;-40
2022/04/10 09:10:31;;;;;;;;;;;21.70;46.30;;;;;;5071207;28;1148;-39
2022/04/10 09:12:58;;;;;;;;;;;21.70;46.30;;;;;;5070555;28;1070;-39
2022/04/10 09:15:33;;;;;;;;;;;21.70;46.20;;;;;;5070877;28;1042;-38
2022/04/10 09:17:59;;;;;;;;;;;21.70;46.10;;;;;;5071187;28;1016;-42
2022/04/10 09:20:26;;;;;;;;;;;21.70;46.10;;;;;;5071617;28;972;-39
2022/04/10 09:23:08;;;;;;;;;;;21.70;46.10;;;;;;5072925;28;1044;-40
2022/04/10 09:25:42;;;;;;;;;;;21.70;46.10;;;;;;5072314;28;1902;-40
2022/04/10 09:28:08;;;;;;;;;;;21.70;46.20;;;;;;5070841;28;1009;-42
2022/04/10 09:30:36;;;;;;;;;;;21.70;46.10;;;;;;5070094;28;1018;-39
2022/04/10 09:33:03;;;;;;;;;;;21.80;46.10;;;;;;5070491;28;984;-39
2022/04/10 09:35:42;;;;;;;;;;;21.70;46.10;;;;;;5070985;28;1036;-41
2022/04/10 09:38:10;;;;;;;;;;;21.80;46.10;;;;;;5072496;28;1115;-40
2022/04/10 09:40:37;;;;;;;;;;;21.70;46.10;;;;;;5072824;28;1122;-38
2022/04/10 09:43:04;;;;;;;;;;;21.70;46.10;;;;;;5070872;28;941;-38
2022/04/10 09:45:33;;;;;;;;;;;21.80;46.10;;;;;;5071731;28;1913;-40
2022/04/10 09:48:17;;;;;;;;;;;21.70;46.10;;;;;;5072271;28;798;-39
2022/04/10 09:50:44;;;;;;;;;;;21.70;46.20;;;;;;5071762;28;924;-39
2022/04/10 09:53:11;;;;;;;;;;;21.70;46.10;;;;;;5070696;28;1046;-43
2022/04/10 09:55:39;;;;;;;;;;;21.70;46.20;;;;;;5072693;28;1095;-39
2022/04/10 09:58:07;;;;;;;;;;;21.70;46.20;;;;;;5090252;28;897;-40
2022/04/10 10:00:36;;;;;;;;;;;21.70;46.20;;;;;;5089977;28;1013;-38
2022/04/10 10:03:05;;;;;;;;;;;21.70;46.20;;;;;;5089551;28;948;-42
2022/04/10 10:05:32;;;;;;;;;;;21.70;46.30;;;;;;5089661;28;1909;-39
2022/04/10 10:07:59;;;;;;;;;;;21.80;46.20;;;;;;5091867;28;988;-39
2022/04/10 10:10:27;;;;;;;;;;;21.70;46.10;;;;;;5091363;28;1068;-41
2022/04/10 10:12:56;;;;;;;;;;;21.70;46.20;;;;;;5089935;28;924;-41
2022/04/10 10:15:23;;;;;;;;;;;21.70;46.10;;;;;;5088944;28;903;-39
2022/04/10 10:17:51;;;;;;;;;;;21.70;46.10;;;;;;5089314;28;997;-39
2022/04/10 10:20:20;;;;;;;;;;;21.70;46.10;;;;;;5090194;28;1801;-42
2022/04/10 10:22:47;;;;;;;;;;;21.70;46.20;;;;;;5090579;28;969;-40
2022/04/10 10:25:17;;;;;;;;;;;21.70;46.20;;;;;;5089741;28;1975;-40
2022/04/10 10:27:55;;;;;;;;;;;21.70;46.20;;;;;;5088400;28;1002;-40
2022/04/10 10:30:26;;;;;;;;;;;21.70;46.20;;;;;;5089438;28;1012;-42
2022/04/10 10:32:56;;;;;;;;;;;21.70;46.30;;;;;;5088101;28;1158;-39
2022/04/10 10:35:32;;;;;;;;;;;21.70;46.30;;;;;;5089904;28;1289;-38
2022/04/10 10:38:00;;;;;;;;;;;21.70;46.20;;;;;;5089432;28;1039;-39
2022/04/10 10:40:27;;;;;;;;;;;21.70;46.20;;;;;;5090616;28;999;-39
2022/04/10 10:42:58;;;;;;;;;;;21.70;46.30;;;;;;5088781;28;888;-39
2022/04/10 10:45:32;;;;;;;;;;;21.70;46.20;;;;;;5088976;28;1968;-39
2022/04/10 10:48:02;;;;;;;;;;;21.70;46.20;;;;;;5089106;28;940;-41
2022/04/10 10:50:31;;;;;;;;;;;21.70;46.20;;;;;;5089662;28;1015;-39
2022/04/10 10:53:05;;;;;;;;;;;21.70;46.20;;;;;;5088433;28;880;-39
2022/04/10 10:55:43;;;;;;;;;;;21.70;46.30;;;;;;5088802;28;1040;-41
2022/04/10 10:58:10;;;;;;;;;;;21.70;46.30;;;;;;5089465;28;916;-39
2022/04/10 11:00:38;;;;;;;;;;;21.70;46.30;;;;;;5089448;28;1119;-40
2022/04/10 11:03:09;;;;;;;;;;;21.70;46.40;;;;;;5089813;28;1018;-39
2022/04/10 11:05:38;;;;;;;;;;;21.70;46.30;;;;;;5091994;28;1910;-40
2022/04/10 11:08:06;;;;;;;;;;;21.70;46.40;;;;;;5090631;28;1016;-38
2022/04/10 11:10:35;;;;;;;;;;;21.70;46.30;;;;;;5088817;28;1100;-39
2022/04/10 11:13:04;;;;;;;;;;;21.70;46.30;;;;;;5091054;28;861;-39
2022/04/10 11:15:32;;;;;;;;;;;21.70;46.30;;;;;;5090769;28;924;-39
2022/04/10 11:18:04;;;;;;;;;;;21.70;46.20;;;;;;5091114;28;999;-39
2022/04/10 11:20:31;;;;;;;;;;;21.70;46.40;;;;;;5090465;28;1001;-38
2022/04/10 11:23:00;;;;;;;;;;;21.70;46.30;;;;;;5089938;28;997;-41
2022/04/10 11:25:31;;;;;;;;;;;21.70;47.40;;;;;;5088234;28;1981;-39
2022/04/10 11:27:58;;;;;;;;;;;21.60;46.30;;;;;;5089149;28;1015;-39
2022/04/10 11:30:25;;;;;;;;;;;21.70;46.30;;;;;;5088463;28;1791;-39
2022/04/10 11:32:53;;;;;;;;;;;21.70;46.20;;;;;;5088960;28;999;-39
2022/04/10 11:35:21;;;;;;;;;;;21.70;46.40;;;;;;5089039;28;877;-39
2022/04/10 11:37:50;;;;;;;;;;;21.70;46.30;;;;;;5086622;28;1040;-40
2022/04/10 11:40:29;;;;;;;;;;;21.70;46.30;;;;;;5086451;28;1020;-40
2022/04/10 11:42:56;;;;;;;;;;;21.70;46.40;;;;;;5090359;28;932;-42
2022/04/10 11:45:23;;;;;;;;;;;21.70;46.30;;;;;;5090932;28;1984;-40
2022/04/10 11:47:49;;;;;;;;;;;21.60;46.40;;;;;;5090963;28;893;-39
2022/04/10 11:50:18;;;;;;;;;;;21.70;46.30;;;;;;5091168;28;1013;-40
2022/04/10 11:53:00;;;;;;;;;;;21.70;46.20;;;;;;5089927;28;885;-39
2022/04/10 11:55:35;;;;;;;;;;;21.70;46.30;;;;;;5087580;28;1155;-41
2022/04/10 11:58:02;;;;;;;;;;;21.70;46.20;;;;;;5090655;28;944;-41
2022/04/10 12:00:28;;;;;;;;;;;21.60;46.20;;;;;;5092016;28;993;-39
2022/04/10 12:02:55;;;;;;;;;;;21.70;46.60;;;;;;5089445;28;845;-39
2022/04/10 12:05:22;;;;;;;;;;;21.70;46.10;;;;;;5089179;28;1906;-39
2022/04/10 12:07:58;;;;;;;;;;;21.70;46.10;;;;;;5089925;28;932;-39
2022/04/10 12:10:25;;;;;;;;;;;21.70;46.20;;;;;;5088307;28;1015;-39
2022/04/10 12:12:53;;;;;;;;;;;21.70;46.30;;;;;;5089509;28;845;-42
2022/04/10 12:15:20;;;;;;;;;;;21.70;46.20;;;;;;5089153;28;1068;-40
2022/04/10 12:17:47;;;;;;;;;;;21.70;46.10;;;;;;5088940;28;913;-39
2022/04/10 12:20:14;;;;;;;;;;;21.70;46.10;;;;;;5086691;28;982;-45
2022/04/10 12:22:41;;;;;;;;;;;21.70;46.80;;;;;;5087404;28;861;-44
2022/04/10 12:25:09;;;;;;;;;;;21.80;46.10;;;;;;5086956;28;1011;-44
2022/04/10 12:27:36;;;;;;;;;;;21.80;46.10;;;;;;5089721;28;996;-44
2022/04/10 12:30:08;;;;;;;;;;;21.70;45.70;;;;;;5088879;28;1902;-43
2022/04/10 12:32:35;;;;;;;;;;;21.70;45.70;;;;;;5088515;28;1023;-44
2022/04/10 12:35:09;;;;;;;;;;;21.90;45.70;;;;;;5088438;28;974;-45
2022/04/10 12:37:36;;;;;;;;;;;21.90;45.70;;;;;;5090683;28;856;-45
2022/04/10 12:40:04;;;;;;;;;;;21.80;45.50;;;;;;5087784;28;1024;-41
2022/04/10 12:42:37;;;;;;;;;;;21.90;45.70;;;;;;5089536;28;1007;-40
2022/04/10 12:45:08;;;;;;;;;;;22.00;45.20;;;;;;5090086;28;1009;-41
2022/04/10 12:47:45;;;;;;;;;;;22.00;45.40;;;;;;5092109;28;1913;-40
2022/04/10 12:50:13;;;;;;;;;;;22.10;45.20;;;;;;5092131;28;973;-41
2022/04/10 12:52:41;;;;;;;;;;;22.30;45.10;;;;;;5091320;28;925;-39
2022/04/10 12:55:18;;;;;;;;;;;22.20;44.80;;;;;;5089803;28;1032;-40
2022/04/10 12:57:53;;;;;;;;;;;22.10;44.70;;;;;;5092262;28;945;-41
2022/04/10 13:00:25;;;;;;;;;;;22.10;44.90;;;;;;5091753;28;892;-41
2022/04/10 13:02:52;;;;;;;;;;;22.10;45.00;;;;;;5091821;28;948;-40
2022/04/10 13:05:18;;;;;;;;;;;22.20;44.80;;;;;;5092027;28;986;-36
2022/04/10 13:07:55;;;;;;;;;;;22.10;45.80;;;;;;5092066;28;1914;-38
2022/04/10 13:10:23;;;;;;;;;;;22.00;45.00;;;;;;5093384;28;999;-43
2022/04/10 13:12:51;;;;;;;;;;;22.00;45.20;;;;;;5091209;28;1461;-37
2022/04/10 13:15:36;;;;;;;;;;;22.10;45.00;;;;;;5092246;28;1024;-41
2022/04/10 13:18:04;;;;;;;;;;;22.10;44.70;;;;;;5092949;28;1074;-45
2022/04/10 13:20:37;;;;;;;;;;;22.10;45.00;;;;;;5092818;28;1067;-45
2022/04/10 13:23:04;;;;;;;;;;;22.10;44.60;;;;;;5092472;28;925;-45
2022/04/10 13:25:33;;;;;;;;;;;22.20;45.00;;;;;;5092955;28;1952;-45
2022/04/10 13:28:00;;;;;;;;;;;22.10;44.70;;;;;;5091772;28;927;-42
2022/04/10 13:30:27;;;;;;;;;;;22.20;44.60;;;;;;5093265;28;987;-43
2022/04/10 13:32:55;;;;;;;;;;;22.10;44.80;;;;;;5090713;28;1905;-44
2022/04/10 13:35:30;;;;;;;;;;;22.20;44.50;;;;;;5090929;28;990;-45
2022/04/10 13:37:57;;;;;;;;;;;22.20;44.20;;;;;;5092982;28;1087;-45
2022/04/10 13:40:29;;;;;;;;;;;22.30;44.10;;;;;;5093447;28;986;-44
2022/04/10 13:42:55;;;;;;;;;;;22.30;44.00;;;;;;5088367;28;1299;-44
2022/04/10 13:45:31;;;;;;;;;;;22.40;43.80;;;;;;5093226;28;928;-46
2022/04/10 13:48:00;;;;;;;;;;;22.40;43.90;;;;;;5093125;28;1906;-42
2022/04/10 13:50:28;;;;;;;;;;;22.50;43.80;;;;;;5091105;28;984;-39
2022/04/10 13:52:59;;;;;;;;;;;22.50;44.70;;;;;;5091867;28;1520;-43
2022/04/10 13:55:25;;;;;;;;;;;22.50;43.60;;;;;;5090343;28;993;-36
2022/04/10 13:57:52;;;;;;;;;;;22.40;43.50;;;;;;5091201;28;861;-41
2022/04/10 14:00:20;;;;;;;;;;;22.30;44.00;;;;;;5092222;28;1041;-44
2022/04/10 14:02:47;;;;;;;;;;;22.30;45.30;;;;;;5093780;28;943;-37
2022/04/10 14:05:15;;;;;;;;;;;22.30;44.20;;;;;;5092566;28;1059;-41
2022/04/10 14:07:45;;;;;;;;;;;22.20;44.10;;;;;;5092725;28;1974;-40
2022/04/10 14:10:13;;;;;;;;;;;22.30;43.90;;;;;;5091157;28;1434;-36
2022/04/10 14:12:43;;;;;;;;;;;22.40;43.80;;;;;;5091525;28;913;-42
2022/04/10 14:15:10;;;;;;;;;;;22.50;43.60;;;;;;5091815;28;1032;-41
2022/04/10 14:17:37;;;;;;;;;;;22.50;43.80;;;;;;5090770;28;964;-39
2022/04/10 14:20:05;;;;;;;;;;;22.50;43.80;;;;;;5089157;28;986;-43
2022/04/10 14:22:34;;;;;;;;;;;22.50;43.80;;;;;;5091851;28;992;-45
2022/04/10 14:25:01;;;;;;;;;;;22.60;43.70;;;;;;5092651;28;1911;-45
2022/04/10 14:27:30;;;;;;;;;;;22.60;43.70;;;;;;5093680;28;1909;-45
2022/04/10 14:30:01;;;;;;;;;;;22.60;43.70;;;;;;5093270;28;992;-43
2022/04/10 14:32:31;;;;;;;;;;;22.60;43.90;;;;;;5094314;28;849;-42
2022/04/10 14:35:04;;;;;;;;;;;22.60;44.00;;;;;;5093017;28;928;-43
2022/04/10 14:37:31;;;;;;;;;;;22.60;44.20;;;;;;5092103;28;936;-43
2022/04/10 14:40:00;;;;;;;;;;;22.60;45.50;;;;;;5091590;28;1010;-44
2022/04/10 14:42:34;;;;;;;;;;;22.60;44.40;;;;;;5092743;28;1509;-44
2022/04/10 14:45:01;;;;;;;;;;;22.70;44.50;;;;;;5091528;28;1634;-38
2022/04/10 14:47:29;;;;;;;;;;;22.80;44.40;;;;;;5091624;28;2035;-38
2022/04/10 14:49:59;;;;;;;;;;;22.80;44.50;;;;;;5092830;28;885;-39